sensor_id;sensor_type;location;lat;lon;timestamp;P1;durP1;ratioP1;P2;durP2;ratioP2
72325;SDS011;60278;47.980;18.780;2022-07-10T00:02:11;2.47;;;1.15;;
72325;SDS011;60278;47.980;18.780;2022-07-10T00:05:42;3.67;;;1.45;;
72325;SDS011;60278;47.980;18.780;2022-07-10T00:09:13;3.20;;;1.30;;
72325;SDS011;60278;47.980;18.780;2022-07-10T00:12:45;2.57;;;1.30;;
72325;SDS011;60278;47.980;18.780;2022-07-10T00:16:17;3.63;;;1.77;;
72325;SDS011;60278;47.980;18.780;2022-07-10T00:19:48;2.90;;;1.45;;
72325;SDS011;60278;47.980;18.780;2022-07-10T00:23:19;2.70;;;1.30;;
72325;SDS011;60278;47.980;18.780;2022-07-10T00:26:50;2.30;;;1.10;;
72325;SDS011;60278;47.980;18.780;2022-07-10T00:30:21;4.18;;;1.30;;
72325;SDS011;60278;47.980;18.780;2022-07-10T00:33:52;3.83;;;1.40;;
72325;SDS011;60278;47.980;18.780;2022-07-10T00:37:23;2.87;;;1.33;;
72325;SDS011;60278;47.980;18.780;2022-07-10T00:40:54;2.67;;;1.37;;
72325;SDS011;60278;47.980;18.780;2022-07-10T00:44:25;3.65;;;1.50;;
72325;SDS011;60278;47.980;18.780;2022-07-10T00:47:56;2.85;;;1.50;;
72325;SDS011;60278;47.980;18.780;2022-07-10T00:51:28;3.43;;;1.60;;
72325;SDS011;60278;47.980;18.780;2022-07-10T00:55:01;3.80;;;1.50;;
72325;SDS011;60278;47.980;18.780;2022-07-10T00:58:33;2.90;;;1.30;;
72325;SDS011;60278;47.980;18.780;2022-07-10T01:02:05;3.30;;;1.35;;
72325;SDS011;60278;47.980;18.780;2022-07-10T01:05:37;6.35;;;1.50;;
72325;SDS011;60278;47.980;18.780;2022-07-10T01:09:08;2.80;;;1.23;;
72325;SDS011;60278;47.980;18.780;2022-07-10T01:12:39;2.70;;;1.40;;
72325;SDS011;60278;47.980;18.780;2022-07-10T01:16:11;3.95;;;1.40;;
72325;SDS011;60278;47.980;18.780;2022-07-10T01:19:43;3.70;;;1.50;;
72325;SDS011;60278;47.980;18.780;2022-07-10T01:23:14;3.97;;;1.50;;
72325;SDS011;60278;47.980;18.780;2022-07-10T01:26:45;3.00;;;1.20;;
72325;SDS011;60278;47.980;18.780;2022-07-10T01:30:16;3.77;;;1.83;;
72325;SDS011;60278;47.980;18.780;2022-07-10T01:33:48;5.70;;;1.30;;
72325;SDS011;60278;47.980;18.780;2022-07-10T01:37:19;3.40;;;1.33;;
72325;SDS011;60278;47.980;18.780;2022-07-10T01:40:50;3.97;;;1.77;;
72325;SDS011;60278;47.980;18.780;2022-07-10T01:44:21;7.13;;;1.73;;
72325;SDS011;60278;47.980;18.780;2022-07-10T01:47:52;4.65;;;1.50;;
72325;SDS011;60278;47.980;18.780;2022-07-10T01:51:23;2.75;;;1.65;;
72325;SDS011;60278;47.980;18.780;2022-07-10T01:54:54;3.15;;;1.70;;
72325;SDS011;60278;47.980;18.780;2022-07-10T01:58:25;3.10;;;1.63;;
72325;SDS011;60278;47.980;18.780;2022-07-10T02:01:56;3.90;;;1.83;;
72325;SDS011;60278;47.980;18.780;2022-07-10T02:05:27;4.68;;;1.65;;
72325;SDS011;60278;47.980;18.780;2022-07-10T02:08:58;2.70;;;1.60;;
72325;SDS011;60278;47.980;18.780;2022-07-10T02:12:29;3.23;;;1.73;;
72325;SDS011;60278;47.980;18.780;2022-07-10T02:16:01;3.42;;;1.63;;
72325;SDS011;60278;47.980;18.780;2022-07-10T02:19:32;4.10;;;1.77;;
72325;SDS011;60278;47.980;18.780;2022-07-10T02:23:03;4.73;;;1.63;;
72325;SDS011;60278;47.980;18.780;2022-07-10T02:26:34;3.97;;;1.70;;
72325;SDS011;60278;47.980;18.780;2022-07-10T02:30:06;3.00;;;1.55;;
72325;SDS011;60278;47.980;18.780;2022-07-10T02:33:37;3.00;;;1.27;;
72325;SDS011;60278;47.980;18.780;2022-07-10T02:37:08;3.03;;;1.70;;
72325;SDS011;60278;47.980;18.780;2022-07-10T02:40:39;2.85;;;1.60;;
72325;SDS011;60278;47.980;18.780;2022-07-10T02:44:11;3.53;;;1.70;;
72325;SDS011;60278;47.980;18.780;2022-07-10T02:47:42;3.93;;;1.57;;
72325;SDS011;60278;47.980;18.780;2022-07-10T02:51:13;5.70;;;1.97;;
72325;SDS011;60278;47.980;18.780;2022-07-10T02:54:44;3.95;;;1.60;;
72325;SDS011;60278;47.980;18.780;2022-07-10T02:58:15;4.22;;;1.88;;
72325;SDS011;60278;47.980;18.780;2022-07-10T03:01:48;3.57;;;1.90;;
72325;SDS011;60278;47.980;18.780;2022-07-10T03:05:19;3.17;;;1.70;;
72325;SDS011;60278;47.980;18.780;2022-07-10T03:08:50;3.70;;;1.90;;
72325;SDS011;60278;47.980;18.780;2022-07-10T03:12:21;5.22;;;1.88;;
72325;SDS011;60278;47.980;18.780;2022-07-10T03:15:55;3.23;;;1.70;;
72325;SDS011;60278;47.980;18.780;2022-07-10T03:19:26;6.60;;;2.10;;
72325;SDS011;60278;47.980;18.780;2022-07-10T03:22:57;4.28;;;1.80;;
72325;SDS011;60278;47.980;18.780;2022-07-10T03:26:28;3.25;;;1.80;;
72325;SDS011;60278;47.980;18.780;2022-07-10T03:30:00;4.10;;;1.80;;
72325;SDS011;60278;47.980;18.780;2022-07-10T03:33:31;4.53;;;2.00;;
72325;SDS011;60278;47.980;18.780;2022-07-10T03:37:02;4.07;;;2.38;;
72325;SDS011;60278;47.980;18.780;2022-07-10T03:40:33;4.68;;;2.13;;
72325;SDS011;60278;47.980;18.780;2022-07-10T03:44:04;4.13;;;1.80;;
72325;SDS011;60278;47.980;18.780;2022-07-10T03:47:36;3.72;;;2.10;;
72325;SDS011;60278;47.980;18.780;2022-07-10T03:51:07;4.90;;;1.85;;
72325;SDS011;60278;47.980;18.780;2022-07-10T03:54:38;4.88;;;2.50;;
72325;SDS011;60278;47.980;18.780;2022-07-10T03:58:09;6.70;;;2.43;;
72325;SDS011;60278;47.980;18.780;2022-07-10T04:01:40;3.55;;;2.15;;
72325;SDS011;60278;47.980;18.780;2022-07-10T04:05:11;6.43;;;2.00;;
72325;SDS011;60278;47.980;18.780;2022-07-10T04:08:42;4.33;;;2.20;;
72325;SDS011;60278;47.980;18.780;2022-07-10T04:12:13;3.43;;;1.90;;
72325;SDS011;60278;47.980;18.780;2022-07-10T04:15:44;4.20;;;2.20;;
72325;SDS011;60278;47.980;18.780;2022-07-10T04:19:15;3.80;;;2.30;;
72325;SDS011;60278;47.980;18.780;2022-07-10T04:22:47;3.97;;;2.40;;
72325;SDS011;60278;47.980;18.780;2022-07-10T04:26:18;5.47;;;2.50;;
72325;SDS011;60278;47.980;18.780;2022-07-10T04:29:49;4.10;;;2.15;;
72325;SDS011;60278;47.980;18.780;2022-07-10T04:33:20;4.10;;;2.40;;
72325;SDS011;60278;47.980;18.780;2022-07-10T04:36:51;4.17;;;2.33;;
72325;SDS011;60278;47.980;18.780;2022-07-10T04:40:22;4.90;;;2.25;;
72325;SDS011;60278;47.980;18.780;2022-07-10T04:43:53;3.60;;;2.30;;
72325;SDS011;60278;47.980;18.780;2022-07-10T04:47:25;3.42;;;2.03;;
72325;SDS011;60278;47.980;18.780;2022-07-10T04:50:56;3.50;;;1.97;;
72325;SDS011;60278;47.980;18.780;2022-07-10T04:54:27;3.40;;;1.83;;
72325;SDS011;60278;47.980;18.780;2022-07-10T04:57:58;4.55;;;2.10;;
72325;SDS011;60278;47.980;18.780;2022-07-10T05:01:29;3.63;;;2.00;;
72325;SDS011;60278;47.980;18.780;2022-07-10T05:05:00;4.43;;;1.70;;
72325;SDS011;60278;47.980;18.780;2022-07-10T05:08:31;4.57;;;2.40;;
72325;SDS011;60278;47.980;18.780;2022-07-10T05:12:02;3.78;;;2.10;;
72325;SDS011;60278;47.980;18.780;2022-07-10T05:15:33;4.22;;;2.42;;
72325;SDS011;60278;47.980;18.780;2022-07-10T05:19:04;5.70;;;2.97;;
72325;SDS011;60278;47.980;18.780;2022-07-10T05:22:35;4.10;;;2.40;;
72325;SDS011;60278;47.980;18.780;2022-07-10T05:26:06;4.10;;;2.45;;
72325;SDS011;60278;47.980;18.780;2022-07-10T05:29:37;5.10;;;1.90;;
72325;SDS011;60278;47.980;18.780;2022-07-10T05:33:08;4.25;;;2.40;;
72325;SDS011;60278;47.980;18.780;2022-07-10T05:36:39;6.75;;;2.70;;
72325;SDS011;60278;47.980;18.780;2022-07-10T05:40:10;4.88;;;2.25;;
72325;SDS011;60278;47.980;18.780;2022-07-10T05:43:42;6.90;;;2.60;;
72325;SDS011;60278;47.980;18.780;2022-07-10T05:47:13;4.07;;;2.65;;
72325;SDS011;60278;47.980;18.780;2022-07-10T05:50:44;4.40;;;2.35;;
72325;SDS011;60278;47.980;18.780;2022-07-10T05:54:15;3.97;;;2.40;;
72325;SDS011;60278;47.980;18.780;2022-07-10T05:57:46;4.90;;;2.50;;
72325;SDS011;60278;47.980;18.780;2022-07-10T06:01:17;4.65;;;2.25;;
72325;SDS011;60278;47.980;18.780;2022-07-10T06:04:48;4.78;;;2.47;;
72325;SDS011;60278;47.980;18.780;2022-07-10T06:08:19;5.43;;;2.00;;
72325;SDS011;60278;47.980;18.780;2022-07-10T06:11:51;3.23;;;1.70;;
72325;SDS011;60278;47.980;18.780;2022-07-10T06:15:22;4.95;;;2.33;;
72325;SDS011;60278;47.980;18.780;2022-07-10T06:18:53;4.03;;;2.20;;
72325;SDS011;60278;47.980;18.780;2022-07-10T06:22:24;4.60;;;2.40;;
72325;SDS011;60278;47.980;18.780;2022-07-10T06:26:02;3.47;;;1.80;;
72325;SDS011;60278;47.980;18.780;2022-07-10T06:29:33;5.05;;;2.22;;
72325;SDS011;60278;47.980;18.780;2022-07-10T06:33:04;4.28;;;2.45;;
72325;SDS011;60278;47.980;18.780;2022-07-10T06:36:35;3.58;;;1.92;;
72325;SDS011;60278;47.980;18.780;2022-07-10T06:40:06;7.10;;;1.90;;
72325;SDS011;60278;47.980;18.780;2022-07-10T06:43:37;4.63;;;1.58;;
72325;SDS011;60278;47.980;18.780;2022-07-10T06:47:09;3.50;;;1.88;;
72325;SDS011;60278;47.980;18.780;2022-07-10T06:51:00;3.33;;;1.70;;
72325;SDS011;60278;47.980;18.780;2022-07-10T06:54:31;3.60;;;1.73;;
72325;SDS011;60278;47.980;18.780;2022-07-10T06:58:02;5.43;;;2.33;;
72325;SDS011;60278;47.980;18.780;2022-07-10T07:01:34;4.28;;;1.83;;
72325;SDS011;60278;47.980;18.780;2022-07-10T07:05:05;3.50;;;1.88;;
72325;SDS011;60278;47.980;18.780;2022-07-10T07:08:37;4.50;;;1.60;;
72325;SDS011;60278;47.980;18.780;2022-07-10T07:12:08;4.30;;;1.80;;
72325;SDS011;60278;47.980;18.780;2022-07-10T07:15:39;3.40;;;1.95;;
72325;SDS011;60278;47.980;18.780;2022-07-10T07:19:13;4.75;;;1.65;;
72325;SDS011;60278;47.980;18.780;2022-07-10T07:23:01;3.40;;;2.03;;
72325;SDS011;60278;47.980;18.780;2022-07-10T07:26:41;2.70;;;1.50;;
72325;SDS011;60278;47.980;18.780;2022-07-10T07:30:13;3.80;;;1.30;;
72325;SDS011;60278;47.980;18.780;2022-07-10T07:33:48;5.35;;;1.75;;
72325;SDS011;60278;47.980;18.780;2022-07-10T07:37:19;4.32;;;1.70;;
72325;SDS011;60278;47.980;18.780;2022-07-10T07:40:50;3.05;;;1.77;;
72325;SDS011;60278;47.980;18.780;2022-07-10T07:44:21;3.20;;;1.60;;
72325;SDS011;60278;47.980;18.780;2022-07-10T07:47:53;5.87;;;2.10;;
72325;SDS011;60278;47.980;18.780;2022-07-10T07:51:29;3.58;;;1.60;;
72325;SDS011;60278;47.980;18.780;2022-07-10T07:55:01;2.60;;;1.20;;
72325;SDS011;60278;47.980;18.780;2022-07-10T07:58:32;2.72;;;1.10;;
72325;SDS011;60278;47.980;18.780;2022-07-10T08:02:03;2.50;;;1.30;;
72325;SDS011;60278;47.980;18.780;2022-07-10T08:05:35;5.90;;;1.53;;
72325;SDS011;60278;47.980;18.780;2022-07-10T08:09:06;3.78;;;1.38;;
72325;SDS011;60278;47.980;18.780;2022-07-10T08:12:37;4.47;;;1.40;;
72325;SDS011;60278;47.980;18.780;2022-07-10T08:16:09;2.92;;;1.40;;
72325;SDS011;60278;47.980;18.780;2022-07-10T08:19:40;1.97;;;1.10;;
72325;SDS011;60278;47.980;18.780;2022-07-10T08:23:11;2.70;;;1.10;;
72325;SDS011;60278;47.980;18.780;2022-07-10T08:26:42;2.70;;;1.15;;
72325;SDS011;60278;47.980;18.780;2022-07-10T08:30:14;2.78;;;1.58;;
72325;SDS011;60278;47.980;18.780;2022-07-10T08:33:45;3.93;;;1.37;;
72325;SDS011;60278;47.980;18.780;2022-07-10T08:37:17;5.30;;;2.83;;
72325;SDS011;60278;47.980;18.780;2022-07-10T08:40:50;2.53;;;1.20;;
72325;SDS011;60278;47.980;18.780;2022-07-10T08:44:24;2.72;;;1.20;;
72325;SDS011;60278;47.980;18.780;2022-07-10T08:47:55;3.35;;;1.00;;
72325;SDS011;60278;47.980;18.780;2022-07-10T08:51:36;2.63;;;1.30;;
72325;SDS011;60278;47.980;18.780;2022-07-10T08:55:11;2.60;;;1.23;;
72325;SDS011;60278;47.980;18.780;2022-07-10T08:58:44;2.85;;;1.20;;
72325;SDS011;60278;47.980;18.780;2022-07-10T09:02:16;2.20;;;1.08;;
72325;SDS011;60278;47.980;18.780;2022-07-10T09:05:47;2.30;;;1.08;;
72325;SDS011;60278;47.980;18.780;2022-07-10T09:09:19;2.03;;;0.83;;
72325;SDS011;60278;47.980;18.780;2022-07-10T09:12:54;2.40;;;0.90;;
72325;SDS011;60278;47.980;18.780;2022-07-10T09:16:28;4.35;;;1.00;;
72325;SDS011;60278;47.980;18.780;2022-07-10T09:20:00;4.38;;;1.30;;
72325;SDS011;60278;47.980;18.780;2022-07-10T09:23:31;2.47;;;1.30;;
72325;SDS011;60278;47.980;18.780;2022-07-10T09:27:04;4.33;;;1.10;;
72325;SDS011;60278;47.980;18.780;2022-07-10T09:30:36;3.78;;;1.00;;
72325;SDS011;60278;47.980;18.780;2022-07-10T09:34:08;3.47;;;1.15;;
72325;SDS011;60278;47.980;18.780;2022-07-10T09:37:40;2.10;;;0.90;;
72325;SDS011;60278;47.980;18.780;2022-07-10T09:44:52;2.67;;;1.20;;
72325;SDS011;60278;47.980;18.780;2022-07-10T09:48:23;2.33;;;1.00;;
72325;SDS011;60278;47.980;18.780;2022-07-10T09:51:54;2.95;;;1.10;;
72325;SDS011;60278;47.980;18.780;2022-07-10T09:55:26;3.80;;;1.05;;
72325;SDS011;60278;47.980;18.780;2022-07-10T09:59:02;2.80;;;1.30;;
72325;SDS011;60278;47.980;18.780;2022-07-10T10:02:38;1.97;;;1.00;;
72325;SDS011;60278;47.980;18.780;2022-07-10T10:06:16;6.38;;;1.00;;
72325;SDS011;60278;47.980;18.780;2022-07-10T10:09:51;5.30;;;1.35;;
72325;SDS011;60278;47.980;18.780;2022-07-10T10:13:29;2.58;;;0.95;;
72325;SDS011;60278;47.980;18.780;2022-07-10T10:17:04;2.20;;;1.00;;
72325;SDS011;60278;47.980;18.780;2022-07-10T10:20:36;4.23;;;0.90;;
72325;SDS011;60278;47.980;18.780;2022-07-10T10:24:08;5.30;;;1.00;;
72325;SDS011;60278;47.980;18.780;2022-07-10T10:27:39;1.88;;;0.82;;
72325;SDS011;60278;47.980;18.780;2022-07-10T10:31:11;2.47;;;0.90;;
72325;SDS011;60278;47.980;18.780;2022-07-10T10:34:43;2.28;;;1.00;;
72325;SDS011;60278;47.980;18.780;2022-07-10T10:38:15;3.80;;;1.00;;
72325;SDS011;60278;47.980;18.780;2022-07-10T10:41:52;2.92;;;0.98;;
72325;SDS011;60278;47.980;18.780;2022-07-10T10:45:31;2.22;;;1.02;;
72325;SDS011;60278;47.980;18.780;2022-07-10T10:49:05;15.40;;;1.42;;
72325;SDS011;60278;47.980;18.780;2022-07-10T10:52:37;3.90;;;1.10;;
72325;SDS011;60278;47.980;18.780;2022-07-10T10:56:32;3.38;;;1.20;;
72325;SDS011;60278;47.980;18.780;2022-07-10T11:00:05;5.40;;;1.50;;
72325;SDS011;60278;47.980;18.780;2022-07-10T11:03:38;3.42;;;1.27;;
72325;SDS011;60278;47.980;18.780;2022-07-10T11:07:09;7.50;;;1.30;;
72325;SDS011;60278;47.980;18.780;2022-07-10T11:14:14;2.03;;;1.10;;
72325;SDS011;60278;47.980;18.780;2022-07-10T11:17:45;2.33;;;1.00;;
72325;SDS011;60278;47.980;18.780;2022-07-10T11:21:22;2.53;;;1.00;;
72325;SDS011;60278;47.980;18.780;2022-07-10T11:28:53;2.47;;;0.80;;
72325;SDS011;60278;47.980;18.780;2022-07-10T11:32:32;4.43;;;1.00;;
72325;SDS011;60278;47.980;18.780;2022-07-10T11:36:04;6.18;;;1.20;;
72325;SDS011;60278;47.980;18.780;2022-07-10T11:39:41;3.83;;;1.17;;
72325;SDS011;60278;47.980;18.780;2022-07-10T11:43:12;6.97;;;1.27;;
72325;SDS011;60278;47.980;18.780;2022-07-10T11:46:47;3.72;;;0.90;;
72325;SDS011;60278;47.980;18.780;2022-07-10T11:50:20;2.47;;;0.90;;
72325;SDS011;60278;47.980;18.780;2022-07-10T11:53:58;3.40;;;0.87;;
72325;SDS011;60278;47.980;18.780;2022-07-10T11:57:38;7.73;;;1.73;;
72325;SDS011;60278;47.980;18.780;2022-07-10T12:01:11;3.05;;;1.10;;
72325;SDS011;60278;47.980;18.780;2022-07-10T12:04:45;3.53;;;1.10;;
72325;SDS011;60278;47.980;18.780;2022-07-10T12:08:16;4.15;;;1.60;;
72325;SDS011;60278;47.980;18.780;2022-07-10T12:12:00;3.03;;;1.10;;
72325;SDS011;60278;47.980;18.780;2022-07-10T12:15:32;4.75;;;1.40;;
72325;SDS011;60278;47.980;18.780;2022-07-10T12:19:06;3.65;;;1.10;;
72325;SDS011;60278;47.980;18.780;2022-07-10T12:22:37;3.28;;;1.00;;
72325;SDS011;60278;47.980;18.780;2022-07-10T12:26:09;2.75;;;1.30;;
72325;SDS011;60278;47.980;18.780;2022-07-10T12:29:44;4.97;;;1.00;;
72325;SDS011;60278;47.980;18.780;2022-07-10T12:33:31;4.35;;;1.17;;
72325;SDS011;60278;47.980;18.780;2022-07-10T12:37:10;3.40;;;1.02;;
72325;SDS011;60278;47.980;18.780;2022-07-10T12:40:41;3.97;;;1.38;;
72325;SDS011;60278;47.980;18.780;2022-07-10T12:44:12;5.80;;;1.10;;
72325;SDS011;60278;47.980;18.780;2022-07-10T12:48:00;5.37;;;1.00;;
72325;SDS011;60278;47.980;18.780;2022-07-10T12:51:47;5.28;;;1.20;;
72325;SDS011;60278;47.980;18.780;2022-07-10T12:55:21;5.40;;;1.10;;
72325;SDS011;60278;47.980;18.780;2022-07-10T12:58:53;6.30;;;1.55;;
72325;SDS011;60278;47.980;18.780;2022-07-10T13:02:24;4.07;;;1.20;;
72325;SDS011;60278;47.980;18.780;2022-07-10T13:05:55;3.23;;;1.10;;
72325;SDS011;60278;47.980;18.780;2022-07-10T13:09:28;4.80;;;1.08;;
72325;SDS011;60278;47.980;18.780;2022-07-10T13:12:59;5.45;;;1.30;;
72325;SDS011;60278;47.980;18.780;2022-07-10T13:16:30;4.03;;;1.20;;
72325;SDS011;60278;47.980;18.780;2022-07-10T13:20:01;4.70;;;0.97;;
72325;SDS011;60278;47.980;18.780;2022-07-10T13:23:32;3.30;;;0.80;;
72325;SDS011;60278;47.980;18.780;2022-07-10T13:27:04;5.53;;;1.00;;
72325;SDS011;60278;47.980;18.780;2022-07-10T13:30:35;3.25;;;0.82;;
72325;SDS011;60278;47.980;18.780;2022-07-10T13:34:07;8.37;;;1.10;;
72325;SDS011;60278;47.980;18.780;2022-07-10T13:37:38;2.53;;;0.90;;
72325;SDS011;60278;47.980;18.780;2022-07-10T13:41:09;3.13;;;1.00;;
72325;SDS011;60278;47.980;18.780;2022-07-10T13:44:40;4.35;;;1.00;;
72325;SDS011;60278;47.980;18.780;2022-07-10T13:48:11;6.10;;;0.80;;
72325;SDS011;60278;47.980;18.780;2022-07-10T13:51:43;3.23;;;1.10;;
72325;SDS011;60278;47.980;18.780;2022-07-10T13:55:14;5.63;;;0.83;;
72325;SDS011;60278;47.980;18.780;2022-07-10T13:58:45;5.03;;;0.90;;
72325;SDS011;60278;47.980;18.780;2022-07-10T14:02:17;7.18;;;1.33;;
72325;SDS011;60278;47.980;18.780;2022-07-10T14:05:48;5.68;;;1.02;;
72325;SDS011;60278;47.980;18.780;2022-07-10T14:09:19;4.83;;;0.90;;
72325;SDS011;60278;47.980;18.780;2022-07-10T14:12:51;5.17;;;0.80;;
72325;SDS011;60278;47.980;18.780;2022-07-10T14:16:24;4.60;;;0.77;;
72325;SDS011;60278;47.980;18.780;2022-07-10T14:19:56;5.53;;;1.05;;
72325;SDS011;60278;47.980;18.780;2022-07-10T14:23:27;3.25;;;0.70;;
72325;SDS011;60278;47.980;18.780;2022-07-10T14:26:58;2.17;;;0.80;;
72325;SDS011;60278;47.980;18.780;2022-07-10T14:30:29;3.97;;;0.83;;
72325;SDS011;60278;47.980;18.780;2022-07-10T14:34:00;3.58;;;0.88;;
72325;SDS011;60278;47.980;18.780;2022-07-10T14:37:31;4.55;;;0.90;;
72325;SDS011;60278;47.980;18.780;2022-07-10T14:41:02;2.78;;;0.77;;
72325;SDS011;60278;47.980;18.780;2022-07-10T14:44:35;2.70;;;0.70;;
72325;SDS011;60278;47.980;18.780;2022-07-10T14:48:06;2.95;;;0.70;;
72325;SDS011;60278;47.980;18.780;2022-07-10T14:51:37;5.45;;;0.93;;
72325;SDS011;60278;47.980;18.780;2022-07-10T14:55:09;5.80;;;0.88;;
72325;SDS011;60278;47.980;18.780;2022-07-10T14:58:40;3.27;;;0.80;;
72325;SDS011;60278;47.980;18.780;2022-07-10T15:02:12;4.20;;;0.90;;
72325;SDS011;60278;47.980;18.780;2022-07-10T15:05:43;4.47;;;0.65;;
72325;SDS011;60278;47.980;18.780;2022-07-10T15:09:14;4.93;;;0.90;;
72325;SDS011;60278;47.980;18.780;2022-07-10T15:12:45;5.88;;;0.80;;
72325;SDS011;60278;47.980;18.780;2022-07-10T15:16:17;4.43;;;1.00;;
72325;SDS011;60278;47.980;18.780;2022-07-10T15:19:48;4.20;;;0.97;;
72325;SDS011;60278;47.980;18.780;2022-07-10T15:23:19;4.10;;;1.00;;
72325;SDS011;60278;47.980;18.780;2022-07-10T15:26:50;9.75;;;1.00;;
72325;SDS011;60278;47.980;18.780;2022-07-10T15:30:21;3.38;;;0.90;;
72325;SDS011;60278;47.980;18.780;2022-07-10T15:33:52;2.10;;;0.70;;
72325;SDS011;60278;47.980;18.780;2022-07-10T15:37:24;7.43;;;1.23;;
72325;SDS011;60278;47.980;18.780;2022-07-10T15:40:55;3.35;;;0.80;;
72325;SDS011;60278;47.980;18.780;2022-07-10T15:44:26;4.80;;;1.20;;
72325;SDS011;60278;47.980;18.780;2022-07-10T15:47:57;4.88;;;1.08;;
72325;SDS011;60278;47.980;18.780;2022-07-10T15:51:28;3.50;;;0.90;;
72325;SDS011;60278;47.980;18.780;2022-07-10T15:54:59;7.00;;;0.95;;
72325;SDS011;60278;47.980;18.780;2022-07-10T15:58:30;5.43;;;0.90;;
72325;SDS011;60278;47.980;18.780;2022-07-10T16:02:01;4.57;;;1.08;;
72325;SDS011;60278;47.980;18.780;2022-07-10T16:05:32;2.20;;;0.70;;
72325;SDS011;60278;47.980;18.780;2022-07-10T16:09:03;3.13;;;0.90;;
72325;SDS011;60278;47.980;18.780;2022-07-10T16:12:35;3.88;;;0.90;;
72325;SDS011;60278;47.980;18.780;2022-07-10T16:16:06;5.03;;;0.90;;
72325;SDS011;60278;47.980;18.780;2022-07-10T16:19:37;2.57;;;0.80;;
72325;SDS011;60278;47.980;18.780;2022-07-10T16:23:08;4.32;;;0.80;;
72325;SDS011;60278;47.980;18.780;2022-07-10T16:26:39;2.80;;;0.90;;
72325;SDS011;60278;47.980;18.780;2022-07-10T16:30:10;3.75;;;0.82;;
72325;SDS011;60278;47.980;18.780;2022-07-10T16:33:41;2.77;;;0.80;;
72325;SDS011;60278;47.980;18.780;2022-07-10T16:37:12;11.53;;;1.17;;
72325;SDS011;60278;47.980;18.780;2022-07-10T16:40:43;4.70;;;1.23;;
72325;SDS011;60278;47.980;18.780;2022-07-10T16:44:14;3.20;;;0.80;;
72325;SDS011;60278;47.980;18.780;2022-07-10T16:47:45;2.23;;;0.70;;
72325;SDS011;60278;47.980;18.780;2022-07-10T16:51:16;3.97;;;0.87;;
72325;SDS011;60278;47.980;18.780;2022-07-10T16:54:49;2.13;;;0.70;;
72325;SDS011;60278;47.980;18.780;2022-07-10T16:58:20;3.42;;;0.73;;
72325;SDS011;60278;47.980;18.780;2022-07-10T17:01:52;3.47;;;0.70;;
72325;SDS011;60278;47.980;18.780;2022-07-10T17:05:23;3.83;;;0.93;;
72325;SDS011;60278;47.980;18.780;2022-07-10T17:08:54;2.80;;;0.80;;
72325;SDS011;60278;47.980;18.780;2022-07-10T17:12:25;2.60;;;1.00;;
72325;SDS011;60278;47.980;18.780;2022-07-10T17:15:56;3.05;;;1.02;;
72325;SDS011;60278;47.980;18.780;2022-07-10T17:19:28;3.40;;;1.00;;
72325;SDS011;60278;47.980;18.780;2022-07-10T17:23:00;3.10;;;1.30;;
72325;SDS011;60278;47.980;18.780;2022-07-10T17:26:31;2.47;;;0.90;;
72325;SDS011;60278;47.980;18.780;2022-07-10T17:30:03;1.93;;;0.90;;
72325;SDS011;60278;47.980;18.780;2022-07-10T17:33:35;6.23;;;1.17;;
72325;SDS011;60278;47.980;18.780;2022-07-10T17:37:06;2.50;;;1.00;;
72325;SDS011;60278;47.980;18.780;2022-07-10T17:40:38;4.07;;;0.90;;
72325;SDS011;60278;47.980;18.780;2022-07-10T17:44:09;3.57;;;1.00;;
72325;SDS011;60278;47.980;18.780;2022-07-10T17:47:40;3.50;;;1.00;;
72325;SDS011;60278;47.980;18.780;2022-07-10T17:51:11;7.55;;;1.35;;
72325;SDS011;60278;47.980;18.780;2022-07-10T17:54:43;4.90;;;1.40;;
72325;SDS011;60278;47.980;18.780;2022-07-10T17:58:14;5.73;;;1.27;;
72325;SDS011;60278;47.980;18.780;2022-07-10T18:01:45;2.40;;;1.10;;
72325;SDS011;60278;47.980;18.780;2022-07-10T18:05:16;5.03;;;0.85;;
72325;SDS011;60278;47.980;18.780;2022-07-10T18:08:47;2.08;;;0.80;;
72325;SDS011;60278;47.980;18.780;2022-07-10T18:12:19;2.40;;;1.00;;
72325;SDS011;60278;47.980;18.780;2022-07-10T18:15:50;2.63;;;0.80;;
72325;SDS011;60278;47.980;18.780;2022-07-10T18:19:21;7.93;;;1.13;;
72325;SDS011;60278;47.980;18.780;2022-07-10T18:22:52;5.97;;;1.20;;
72325;SDS011;60278;47.980;18.780;2022-07-10T18:26:23;2.00;;;0.80;;
72325;SDS011;60278;47.980;18.780;2022-07-10T18:29:54;4.43;;;1.02;;
72325;SDS011;60278;47.980;18.780;2022-07-10T18:33:25;3.00;;;1.23;;
72325;SDS011;60278;47.980;18.780;2022-07-10T18:37:14;3.80;;;1.50;;
72325;SDS011;60278;47.980;18.780;2022-07-10T18:40:45;2.70;;;0.80;;
72325;SDS011;60278;47.980;18.780;2022-07-10T18:44:17;5.68;;;1.10;;
72325;SDS011;60278;47.980;18.780;2022-07-10T18:47:48;2.60;;;0.85;;
72325;SDS011;60278;47.980;18.780;2022-07-10T18:51:19;2.37;;;1.00;;
72325;SDS011;60278;47.980;18.780;2022-07-10T18:54:50;4.77;;;1.10;;
72325;SDS011;60278;47.980;18.780;2022-07-10T18:58:21;2.72;;;1.10;;
72325;SDS011;60278;47.980;18.780;2022-07-10T19:01:52;2.92;;;0.90;;
72325;SDS011;60278;47.980;18.780;2022-07-10T19:05:23;2.83;;;0.80;;
72325;SDS011;60278;47.980;18.780;2022-07-10T19:08:54;2.70;;;1.10;;
72325;SDS011;60278;47.980;18.780;2022-07-10T19:12:26;5.60;;;1.00;;
72325;SDS011;60278;47.980;18.780;2022-07-10T19:15:57;3.77;;;0.90;;
72325;SDS011;60278;47.980;18.780;2022-07-10T19:19:28;2.00;;;1.10;;
72325;SDS011;60278;47.980;18.780;2022-07-10T19:22:59;2.47;;;1.48;;
72325;SDS011;60278;47.980;18.780;2022-07-10T19:26:30;3.25;;;0.82;;
72325;SDS011;60278;47.980;18.780;2022-07-10T19:30:02;1.80;;;0.77;;
72325;SDS011;60278;47.980;18.780;2022-07-10T19:33:34;2.67;;;1.00;;
72325;SDS011;60278;47.980;18.780;2022-07-10T19:37:07;2.95;;;0.98;;
72325;SDS011;60278;47.980;18.780;2022-07-10T19:40:38;1.85;;;0.60;;
72325;SDS011;60278;47.980;18.780;2022-07-10T19:44:12;2.33;;;0.70;;
72325;SDS011;60278;47.980;18.780;2022-07-10T19:47:43;6.77;;;1.00;;
72325;SDS011;60278;47.980;18.780;2022-07-10T19:51:15;2.58;;;1.00;;
72325;SDS011;60278;47.980;18.780;2022-07-10T19:54:47;2.42;;;0.80;;
72325;SDS011;60278;47.980;18.780;2022-07-10T19:58:19;2.30;;;0.93;;
72325;SDS011;60278;47.980;18.780;2022-07-10T20:01:50;1.60;;;0.67;;
72325;SDS011;60278;47.980;18.780;2022-07-10T20:05:21;1.65;;;0.80;;
72325;SDS011;60278;47.980;18.780;2022-07-10T20:08:53;2.75;;;0.73;;
72325;SDS011;60278;47.980;18.780;2022-07-10T20:12:24;2.93;;;0.80;;
72325;SDS011;60278;47.980;18.780;2022-07-10T20:15:57;2.90;;;0.80;;
72325;SDS011;60278;47.980;18.780;2022-07-10T20:19:28;5.07;;;1.10;;
72325;SDS011;60278;47.980;18.780;2022-07-10T20:23:00;3.78;;;0.90;;
72325;SDS011;60278;47.980;18.780;2022-07-10T20:26:31;2.83;;;0.93;;
72325;SDS011;60278;47.980;18.780;2022-07-10T20:30:03;2.87;;;0.80;;
72325;SDS011;60278;47.980;18.780;2022-07-10T20:33:34;4.97;;;0.90;;
72325;SDS011;60278;47.980;18.780;2022-07-10T20:37:06;3.22;;;0.90;;
72325;SDS011;60278;47.980;18.780;2022-07-10T20:40:55;2.20;;;0.70;;
72325;SDS011;60278;47.980;18.780;2022-07-10T20:44:26;1.40;;;0.70;;
72325;SDS011;60278;47.980;18.780;2022-07-10T20:47:57;2.08;;;0.88;;
72325;SDS011;60278;47.980;18.780;2022-07-10T20:51:28;2.10;;;0.90;;
72325;SDS011;60278;47.980;18.780;2022-07-10T20:55:00;3.43;;;1.00;;
72325;SDS011;60278;47.980;18.780;2022-07-10T20:58:32;2.57;;;0.90;;
72325;SDS011;60278;47.980;18.780;2022-07-10T21:02:03;2.20;;;0.98;;
72325;SDS011;60278;47.980;18.780;2022-07-10T21:05:34;3.35;;;0.80;;
72325;SDS011;60278;47.980;18.780;2022-07-10T21:09:06;1.90;;;0.73;;